Decoursey, Kentucky
Current Conditions -  °F | °C
As of 11:15 AM on Thursday 23 Oct 2014 (Local Time) from KI69 Reporting Station
Clear Clear  
Wind Chill: 11°   Ceiling: Unl
Heat Index: 11°   Visibility: 10mi
Dew Point:   Wind: 3mph
Humidity: 71%   Direction: 30°NNE
Pressure: 30.25"   Gusts: NA
Location:  39.0659°N, 84.5309°W
Report Text: KI69 231515Z AUTO 03003KT 10SM CLR 11/06 A3025 RMK AO1
Loading
Personal Weather Stations






























Interactive Weather Map
Tropical Storm Tracking
New forecast layout! Learn more

10-Day Weather Forecast

Advertisements
Track Severe Weather on mobile